Time;durP1;ratioP1;P1;durP2;ratioP2;P2;SDS_P1;SDS_P2;PMS_P1;PMS_P2;Temp;Humidity;BMP_temperature;BMP_pressure;BME280_temperature;BME280_humidity;BME280_pressure;Samples;Min_cycle;Max_cycle;Signal;HPM_P1;HPM_P2
2022/09/26 00:01:46;;;;;;;;;;;;;;;22.04;63.47;98678.72;7310277;19;128958;-38
2022/09/26 00:04:22;;;;;;;;;;;;;;;22.05;63.87;98675.16;7310777;19;129804;-39
2022/09/26 00:06:47;;;;;;;;;;;;;;;22.04;63.81;98676.94;7311645;19;131884;-38
2022/09/26 00:09:13;;;;;;;;;;;;;;;22.05;63.21;98670.72;7307626;19;132023;-37
2022/09/26 00:11:39;;;;;;;;;;;;;;;22.03;63.50;98666.66;7310245;19;130637;-39
2022/09/26 00:14:06;;;;;;;;;;;;;;;22.05;63.47;98670.72;7310144;19;129157;-37
2022/09/26 00:16:31;;;;;;;;;;;;;;;22.05;64.05;98662.06;7310777;19;129486;-38
2022/09/26 00:19:00;;;;;;;;;;;;;;;22.06;63.29;98661.91;7310227;19;129811;-37
2022/09/26 00:21:26;;;;;;;;;;;;;;;22.02;63.07;98660.59;7308470;19;128926;-39
2022/09/26 00:23:52;;;;;;;;;;;;;;;22.05;63.56;98664.69;7310089;19;128853;-40
2022/09/26 00:26:19;;;;;;;;;;;;;;;22.06;63.60;98674.16;7308385;19;130154;-40
2022/09/26 00:28:44;;;;;;;;;;;;;;;22.05;63.36;98664.69;7308619;19;129388;-39
2022/09/26 00:31:12;;;;;;;;;;;;;;;22.05;63.55;98673.34;7308331;19;130152;-41
2022/09/26 00:33:38;;;;;;;;;;;;;;;22.05;63.54;98665.47;7304599;19;130891;-39
2022/09/26 00:36:03;;;;;;;;;;;;;;;22.07;63.58;98662.69;7307799;19;129590;-39
2022/09/26 00:38:29;;;;;;;;;;;;;;;21.98;63.40;98656.69;7309678;19;129264;-40
2022/09/26 00:40:54;;;;;;;;;;;;;;;22.06;63.74;98668.94;7310520;19;130056;-40
2022/09/26 00:43:28;;;;;;;;;;;;;;;22.03;63.50;98667.47;7306131;19;129604;-37
2022/09/26 00:45:57;;;;;;;;;;;;;;;22.05;63.66;98655.00;7314277;19;129831;-37
2022/09/26 00:48:22;;;;;;;;;;;;;;;22.06;63.98;98656.66;7315223;19;129479;-38
2022/09/26 00:50:48;;;;;;;;;;;;;;;22.06;63.89;98655.84;7316499;19;129437;-39
2022/09/26 00:53:16;;;;;;;;;;;;;;;22.04;63.17;98663.03;7312226;19;129137;-38
2022/09/26 00:55:44;;;;;;;;;;;;;;;21.93;63.78;98635.41;7316721;19;129904;-39
2022/09/26 00:58:11;;;;;;;;;;;;;;;22.05;63.83;98648.97;7315309;19;129469;-38
2022/09/26 01:00:39;;;;;;;;;;;;;;;22.07;63.48;98652.22;7316657;19;129447;-40
2022/09/26 01:03:04;;;;;;;;;;;;;;;22.04;63.87;98653.38;7313743;19;129147;-39
2022/09/26 01:05:30;;;;;;;;;;;;;;;22.07;63.25;98644.38;7315304;19;129468;-39
2022/09/26 01:07:56;;;;;;;;;;;;;;;22.06;63.12;98650.59;7315065;19;129701;-38
2022/09/26 01:10:21;;;;;;;;;;;;;;;22.00;64.04;98638.97;7315615;19;129963;-39
2022/09/26 01:12:46;;;;;;;;;;;;;;;22.06;63.28;98646.19;7314693;19;129062;-38
2022/09/26 01:15:12;;;;;;;;;;;;;;;21.93;63.57;98623.13;7316665;19;130260;-39
2022/09/26 01:17:43;;;;;;;;;;;;;;;22.05;63.88;98643.75;7312106;19;145820;-40
2022/09/26 01:20:24;;;;;;;;;;;;;;;21.95;63.48;98622.97;7315760;19;129715;-42
2022/09/26 01:22:56;;;;;;;;;;;;;;;22.06;63.86;98642.75;7315185;19;129619;-38
2022/09/26 01:25:24;;;;;;;;;;;;;;;22.04;63.03;98636.84;7315602;19;130110;-41
2022/09/26 01:27:49;;;;;;;;;;;;;;;21.96;63.43;98616.75;7315814;19;130410;-41
2022/09/26 01:30:18;;;;;;;;;;;;;;;22.03;63.41;98625.59;7316617;19;129507;-36
2022/09/26 01:32:52;;;;;;;;;;;;;;;22.07;63.59;98632.13;7313439;19;129085;-40
2022/09/26 01:35:17;;;;;;;;;;;;;;;22.06;63.25;98629.66;7315864;19;129783;-41
2022/09/26 01:37:43;;;;;;;;;;;;;;;22.07;63.57;98626.06;7315084;19;129798;-39
2022/09/26 01:40:20;;;;;;;;;;;;;;;22.07;63.91;98631.28;7314035;19;129028;-38
2022/09/26 01:43:04;;;;;;;;;;;;;;;22.07;63.48;98620.81;7314935;19;129088;-42
2022/09/26 01:45:36;;;;;;;;;;;;;;;22.07;63.47;98620.81;7315000;19;130114;-41
2022/09/26 01:48:12;;;;;;;;;;;;;;;22.06;63.69;98620.03;7314322;19;129710;-40
2022/09/26 01:50:44;;;;;;;;;;;;;;;22.07;63.73;98620.81;7315451;19;129252;-37
2022/09/26 01:53:18;;;;;;;;;;;;;;;22.06;63.23;98624.44;7312308;19;130947;-38
2022/09/26 01:56:00;;;;;;;;;;;;;;;22.07;63.13;98615.59;7314184;19;129688;-37
2022/09/26 01:58:31;;;;;;;;;;;;;;;22.06;63.64;98625.25;7314638;19;129194;-39
2022/09/26 02:00:59;;;;;;;;;;;;;;;22.07;63.27;98620.81;7315936;19;129013;-39
2022/09/26 02:03:28;;;;;;;;;;;;;;;22.07;63.79;98616.41;7312429;19;129477;-39
2022/09/26 02:06:04;;;;;;;;;;;;;;;22.06;63.80;98622.63;7314525;19;129859;-39
2022/09/26 02:08:34;;;;;;;;;;;;;;;22.06;63.97;98619.19;7312885;19;129974;-37
2022/09/26 02:11:11;;;;;;;;;;;;;;;22.07;63.34;98618.19;7314321;19;129044;-38
2022/09/26 02:13:42;;;;;;;;;;;;;;;22.06;63.82;98614.78;7311875;19;129018;-38
2022/09/26 02:16:09;;;;;;;;;;;;;;;22.06;63.52;98609.56;7314926;19;131219;-37
2022/09/26 02:18:47;;;;;;;;;;;;;;;22.06;63.49;98606.09;7314487;19;129648;-39
2022/09/26 02:21:15;;;;;;;;;;;;;;;22.05;63.57;98597.44;7314059;19;129987;-37
2022/09/26 02:23:40;;;;;;;;;;;;;;;22.05;63.40;98594.81;7313766;19;130212;-39
2022/09/26 02:26:06;;;;;;;;;;;;;;;21.95;63.82;98575.84;7312928;19;129462;-39
2022/09/26 02:28:31;;;;;;;;;;;;;;;22.06;64.04;98599.06;7313297;19;130397;-39
2022/09/26 02:31:00;;;;;;;;;;;;;;;22.08;63.58;98601.53;7314505;19;130105;-37
2022/09/26 02:33:26;;;;;;;;;;;;;;;21.95;63.43;98581.91;7310721;19;129627;-42
2022/09/26 02:35:54;;;;;;;;;;;;;;;22.05;63.15;98594.81;7314456;19;129564;-39
2022/09/26 02:38:21;;;;;;;;;;;;;;;22.07;63.80;98605.09;7312810;19;130245;-39
2022/09/26 02:40:47;;;;;;;;;;;;;;;22.09;63.45;98608.38;7313723;19;129262;-38
2022/09/26 02:43:30;;;;;;;;;;;;;;;22.06;63.60;98593.03;7310231;19;129566;-40
2022/09/26 02:46:05;;;;;;;;;;;;;;;22.07;63.66;98610.34;7313811;19;129252;-40
2022/09/26 02:48:42;;;;;;;;;;;;;;;22.07;63.75;98610.34;7311714;19;130421;-39
2022/09/26 02:51:07;;;;;;;;;;;;;;;22.05;63.16;98596.63;7312826;19;129575;-37
2022/09/26 02:53:47;;;;;;;;;;;;;;;22.06;63.73;98603.50;7309544;19;128983;-39
2022/09/26 02:56:28;;;;;;;;;;;;;;;22.04;63.41;98592.38;7312912;19;129817;-38
2022/09/26 02:59:20;;;;;;;;;;;;;;;22.06;63.53;98593.84;7312506;19;129963;-39
2022/09/26 03:02:17;;;;;;;;;;;;;;;22.07;63.77;98597.25;7313395;19;130276;-38
2022/09/26 03:05:12;;;;;;;;;;;;;;;22.07;63.60;98594.63;7308967;19;129537;-38
2022/09/26 03:07:46;;;;;;;;;;;;;;;22.06;63.21;98598.25;7310033;19;130674;-37
2022/09/26 03:10:12;;;;;;;;;;;;;;;22.05;63.15;98594.81;7311196;19;129612;-38
2022/09/26 03:12:38;;;;;;;;;;;;;;;22.05;63.89;98591.41;7311292;19;129646;-38
2022/09/26 03:15:04;;;;;;;;;;;;;;;22.06;63.30;98588.59;7312689;19;129283;-40
2022/09/26 03:17:30;;;;;;;;;;;;;;;22.06;63.86;98587.78;7311764;19;129350;-38
2022/09/26 03:20:04;;;;;;;;;;;;;;;22.06;63.87;98587.78;7312391;19;130138;-39
2022/09/26 03:22:30;;;;;;;;;;;;;;;22.06;63.88;98586.00;7309680;19;129959;-38
2022/09/26 03:24:58;;;;;;;;;;;;;;;22.06;63.30;98587.78;7314228;19;129673;-38
2022/09/26 03:27:23;;;;;;;;;;;;;;;21.98;63.88;98574.72;7311931;19;130487;-38
2022/09/26 03:29:49;;;;;;;;;;;;;;;22.06;63.50;98585.16;7310761;19;129088;-39
2022/09/26 03:32:14;;;;;;;;;;;;;;;21.96;63.89;98570.44;7307989;19;129221;-38
2022/09/26 03:34:39;;;;;;;;;;;;;;;22.06;63.29;98582.56;7310104;19;128960;-39
2022/09/26 03:37:05;;;;;;;;;;;;;;;22.06;63.80;98590.41;7311633;19;129486;-39
2022/09/26 03:39:30;;;;;;;;;;;;;;;22.04;63.74;98574.03;7312179;19;129395;-38
2022/09/26 03:41:56;;;;;;;;;;;;;;;21.93;63.81;98565.56;7308640;19;129026;-38
2022/09/26 03:44:21;;;;;;;;;;;;;;;22.07;63.62;98584.16;7311504;19;129970;-39
2022/09/26 03:46:46;;;;;;;;;;;;;;;21.96;63.73;98575.69;7312060;19;129159;-37
2022/09/26 03:49:12;;;;;;;;;;;;;;;22.05;63.56;98591.41;7310395;19;130192;-37
2022/09/26 03:51:37;;;;;;;;;;;;;;;21.96;63.82;98578.31;7310330;19;130949;-39
2022/09/26 03:54:02;;;;;;;;;;;;;;;22.05;63.25;98584.34;7311201;19;129008;-40
2022/09/26 03:56:28;;;;;;;;;;;;;;;22.08;64.11;98591.06;7311889;19;129338;-39
2022/09/26 03:58:53;;;;;;;;;;;;;;;22.04;63.88;98582.72;7309144;19;130996;-37
2022/09/26 04:01:20;;;;;;;;;;;;;;;22.07;63.34;98584.16;7311471;19;129043;-38
2022/09/26 04:03:46;;;;;;;;;;;;;;;22.05;63.90;98586.97;7310755;19;128815;-39
2022/09/26 04:06:11;;;;;;;;;;;;;;;22.08;63.15;98580.59;7311421;19;129394;-37
2022/09/26 04:08:38;;;;;;;;;;;;;;;22.06;63.95;98578.13;7308825;19;129587;-39
2022/09/26 04:11:04;;;;;;;;;;;;;;;22.04;63.57;98576.66;7309925;19;129161;-40
2022/09/26 04:13:30;;;;;;;;;;;;;;;22.05;63.93;98575.69;7308119;19;129277;-38
2022/09/26 04:15:56;;;;;;;;;;;;;;;21.98;63.74;98564.25;7307892;19;129874;-38
2022/09/26 04:18:21;;;;;;;;;;;;;;;22.06;63.57;98574.69;7308551;19;131087;-37
2022/09/26 04:20:46;;;;;;;;;;;;;;;22.05;63.49;98566.03;7316163;19;129340;-39
2022/09/26 04:23:12;;;;;;;;;;;;;;;22.07;63.40;98571.09;7314467;19;130174;-36
2022/09/26 04:25:37;;;;;;;;;;;;;;;22.09;63.52;98566.50;7318649;19;129282;-38
2022/09/26 04:28:02;;;;;;;;;;;;;;;22.07;63.69;98565.84;7316591;19;130389;-40
2022/09/26 04:30:29;;;;;;;;;;;;;;;22.10;63.78;98570.78;7314831;19;129908;-39
2022/09/26 04:32:54;;;;;;;;;;;;;;;22.09;63.52;98561.28;7314613;19;129197;-38
2022/09/26 04:35:19;;;;;;;;;;;;;;;22.10;63.33;98562.91;7314347;19;129764;-38
2022/09/26 04:37:46;;;;;;;;;;;;;;;22.09;63.51;98559.47;7316952;19;130958;-39
2022/09/26 04:40:11;;;;;;;;;;;;;;;22.08;63.78;98560.44;7312623;19;129139;-40
2022/09/26 04:42:37;;;;;;;;;;;;;;;22.02;63.78;98558.50;7315210;19;129510;-37
2022/09/26 04:45:02;;;;;;;;;;;;;;;22.07;63.70;98561.44;7316693;19;130657;-39
2022/09/26 04:47:27;;;;;;;;;;;;;;;22.06;63.78;98562.44;7316330;19;129483;-41
2022/09/26 04:49:53;;;;;;;;;;;;;;;22.06;63.47;98562.44;7314994;19;129194;-40
2022/09/26 04:52:19;;;;;;;;;;;;;;;22.07;63.45;98565.84;7315174;19;129490;-37
2022/09/26 04:54:44;;;;;;;;;;;;;;;22.10;63.34;98563.72;7313712;19;130911;-39
2022/09/26 04:57:09;;;;;;;;;;;;;;;22.07;63.36;98566.66;7316936;19;129951;-39
2022/09/26 04:59:34;;;;;;;;;;;;;;;22.06;63.61;98572.06;7315989;19;129590;-39
2022/09/26 05:02:06;;;;;;;;;;;;;;;22.07;63.52;98563.22;7317226;19;129380;-38
2022/09/26 05:04:32;;;;;;;;;;;;;;;22.07;63.96;98558.00;7313726;19;129198;-39
2022/09/26 05:06:58;;;;;;;;;;;;;;;22.04;63.89;98550.47;7313216;19;129286;-40
2022/09/26 05:09:23;;;;;;;;;;;;;;;22.06;63.69;98551.97;7313824;19;129143;-39
2022/09/26 05:11:48;;;;;;;;;;;;;;;22.04;63.70;98547.88;7312695;19;129127;-39
2022/09/26 05:14:13;;;;;;;;;;;;;;;22.07;63.82;98552.75;7314828;19;129513;-38
2022/09/26 05:16:39;;;;;;;;;;;;;;;22.10;63.48;98547.22;7316354;19;130517;-37
2022/09/26 05:19:04;;;;;;;;;;;;;;;22.09;63.57;98551.63;7314894;19;129502;-39
2022/09/26 05:21:29;;;;;;;;;;;;;;;22.08;64.02;98546.56;7314989;19;129118;-39
2022/09/26 05:26:41;;;;;;;;;;;;;;;22.07;63.34;98548.34;7315582;19;129469;-38
2022/09/26 05:29:07;;;;;;;;;;;;;;;22.03;63.94;98539.22;7314017;19;129175;-39
2022/09/26 05:31:36;;;;;;;;;;;;;;;22.06;63.47;98551.13;7313660;19;129030;-40
2022/09/26 05:34:05;;;;;;;;;;;;;;;22.05;63.24;98546.91;7315242;19;129167;-38
2022/09/26 05:36:30;;;;;;;;;;;;;;;22.08;63.08;98555.22;7316982;19;129415;-36
2022/09/26 05:38:55;;;;;;;;;;;;;;;22.08;64.07;98554.41;7315895;19;129034;-38
2022/09/26 05:41:20;;;;;;;;;;;;;;;21.98;63.25;98534.47;7316102;19;129018;-40
2022/09/26 05:43:46;;;;;;;;;;;;;;;22.08;63.26;98549.19;7314354;19;130001;-38
2022/09/26 05:46:12;;;;;;;;;;;;;;;22.08;63.89;98551.78;7316305;19;131185;-39
2022/09/26 05:48:38;;;;;;;;;;;;;;;22.07;64.00;98558.81;7311307;19;129728;-37
2022/09/26 05:51:09;;;;;;;;;;;;;;;22.07;63.32;98555.38;7315482;19;130071;-38
2022/09/26 05:53:35;;;;;;;;;;;;;;;22.08;63.80;98557.81;7312345;19;129451;-40
2022/09/26 05:56:00;;;;;;;;;;;;;;;22.12;63.89;98556.53;7313106;19;129291;-39
2022/09/26 05:58:32;;;;;;;;;;;;;;;22.17;63.68;98561.25;7311578;19;129694;-38
2022/09/26 06:01:02;;;;;;;;;;;;;;;22.14;63.43;98554.56;7315326;19;130993;-38
2022/09/26 06:03:27;;;;;;;;;;;;;;;22.13;63.37;98565.19;7308577;19;129080;-40
2022/09/26 06:05:53;;;;;;;;;;;;;;;22.13;62.93;98558.13;7313852;19;130363;-38
2022/09/26 06:08:18;;;;;;;;;;;;;;;22.22;63.44;98556.31;7314548;19;129109;-39
2022/09/26 06:10:43;;;;;;;;;;;;;;;22.26;62.30;98557.63;7312102;19;129619;-39
2022/09/26 06:13:08;;;;;;;;;;;;;;;22.30;62.61;98556.28;7309875;19;129566;-38
2022/09/26 06:15:33;;;;;;;;;;;;;;;22.27;62.74;98554.84;7313460;19;130148;-39
2022/09/26 06:17:59;;;;;;;;;;;;;;;22.24;62.18;98559.59;7314613;19;128949;-38
2022/09/26 06:20:25;;;;;;;;;;;;;;;22.26;62.73;98553.22;7314398;19;129111;-38
2022/09/26 06:22:51;;;;;;;;;;;;;;;22.26;62.49;98555.84;7311508;19;129189;-38
2022/09/26 06:25:16;;;;;;;;;;;;;;;22.27;62.45;98551.41;7314151;19;130622;-38
2022/09/26 06:27:42;;;;;;;;;;;;;;;22.27;63.05;98548.78;7314197;19;128964;-38
2022/09/26 06:30:09;;;;;;;;;;;;;;;22.23;62.76;98544.88;7311299;19;129263;-39
2022/09/26 06:32:35;;;;;;;;;;;;;;;22.18;62.47;98534.09;7311308;19;129434;-37
2022/09/26 06:35:00;;;;;;;;;;;;;;;22.26;63.10;98552.38;7312204;19;130610;-39
2022/09/26 06:37:26;;;;;;;;;;;;;;;22.35;62.42;98546.13;7312017;19;129498;-38
2022/09/26 06:39:51;;;;;;;;;;;;;;;22.28;63.09;98547.81;7312965;19;129252;-37
2022/09/26 06:42:16;;;;;;;;;;;;;;;22.26;62.43;98531.44;7310250;19;129624;-40
2022/09/26 06:44:41;;;;;;;;;;;;;;;22.28;62.72;98542.56;7312320;19;129263;-38
2022/09/26 06:47:07;;;;;;;;;;;;;;;22.32;62.76;98539.44;7313721;19;129151;-38
2022/09/26 06:49:33;;;;;;;;;;;;;;;22.38;63.17;98533.50;7312456;19;129666;-39
2022/09/26 06:51:59;;;;;;;;;;;;;;;22.38;62.61;98535.34;7310421;19;129580;-39
2022/09/26 06:54:24;;;;;;;;;;;;;;;22.28;62.89;98534.72;7313953;19;130256;-40
2022/09/26 06:56:49;;;;;;;;;;;;;;;22.27;63.14;98543.53;7313663;19;129243;-37
2022/09/26 06:59:15;;;;;;;;;;;;;;;22.25;62.72;98535.03;7314814;19;129211;-40
2022/09/26 07:01:41;;;;;;;;;;;;;;;22.23;63.52;98542.25;7311951;19;130371;-40
2022/09/26 07:04:06;;;;;;;;;;;;;;;22.16;63.43;98525.59;7312384;19;129797;-37
2022/09/26 07:06:31;;;;;;;;;;;;;;;22.25;62.94;98535.03;7312608;19;128769;-38
2022/09/26 07:08:56;;;;;;;;;;;;;;;22.14;63.38;98522.31;7311948;19;129587;-38
2022/09/26 07:11:22;;;;;;;;;;;;;;;22.23;63.48;98534.41;7311690;19;130910;-38
2022/09/26 07:13:47;;;;;;;;;;;;;;;22.22;63.27;98535.38;7311229;19;129715;-38
2022/09/26 07:16:12;;;;;;;;;;;;;;;22.22;62.84;98535.38;7312771;19;129074;-38
2022/09/26 07:18:38;;;;;;;;;;;;;;;22.21;63.25;98531.13;7311284;19;128871;-38
2022/09/26 07:21:07;;;;;;;;;;;;;;;22.21;63.59;98529.34;7312833;19;129020;-39
2022/09/26 07:23:32;;;;;;;;;;;;;;;22.21;62.76;98524.09;7309905;19;131025;-38
2022/09/26 07:25:57;;;;;;;;;;;;;;;22.21;62.77;98524.09;7312339;19;129045;-39
2022/09/26 07:28:23;;;;;;;;;;;;;;;22.23;63.26;98523.94;7312172;19;129020;-40
2022/09/26 07:30:48;;;;;;;;;;;;;;;22.22;62.93;98522.28;7308124;19;130206;-38
2022/09/26 07:33:14;;;;;;;;;;;;;;;22.14;62.72;98499.59;7308789;19;133001;-38
2022/09/26 07:35:39;;;;;;;;;;;;;;;22.29;62.58;98520.63;7312528;19;129155;-40
2022/09/26 07:38:04;;;;;;;;;;;;;;;22.26;63.02;98520.97;7310788;19;129422;-39
2022/09/26 07:40:30;;;;;;;;;;;;;;;22.23;62.43;98516.09;7312089;19;129428;-39
2022/09/26 07:42:59;;;;;;;;;;;;;;;22.25;62.21;98514.09;7308219;19;129740;-37
2022/09/26 07:50:54;;;;;;;;;;;;;;;22.18;62.77;98523.63;7308137;19;129814;-40
2022/09/26 07:53:19;;;;;;;;;;;;;;;22.19;62.87;98520.00;7308190;19;129154;-39
2022/09/26 07:56:04;;;;;;;;;;;;;;;22.20;62.31;98521.63;7310847;19;129611;-39
2022/09/26 07:58:29;;;;;;;;;;;;;;;22.17;62.63;98514.13;7311540;19;129443;-38
2022/09/26 08:00:55;;;;;;;;;;;;;;;22.18;62.96;98511.34;7312006;19;129124;-40
2022/09/26 08:03:21;;;;;;;;;;;;;;;22.18;62.94;98507.91;7309124;19;129218;-39
2022/09/26 08:05:46;;;;;;;;;;;;;;;22.18;62.34;98513.16;7311816;19;129124;-41
2022/09/26 08:08:13;;;;;;;;;;;;;;;22.19;62.84;98509.53;7311250;19;128858;-38
2022/09/26 08:10:38;;;;;;;;;;;;;;;22.17;62.93;98519.34;7309337;19;129945;-40
2022/09/26 08:13:03;;;;;;;;;;;;;;;22.17;63.49;98521.97;7308706;19;129113;-38
2022/09/26 08:15:29;;;;;;;;;;;;;;;22.15;63.27;98516.13;7311540;19;128893;-38
2022/09/26 08:17:54;;;;;;;;;;;;;;;22.18;62.90;98518.38;7310660;19;129837;-39
2022/09/26 08:20:19;;;;;;;;;;;;;;;22.17;62.60;98517.56;7310395;19;129949;-41
2022/09/26 08:22:44;;;;;;;;;;;;;;;22.16;62.77;98512.50;7309766;19;129654;-38
2022/09/26 08:25:10;;;;;;;;;;;;;;;22.16;62.86;98515.13;7311891;19;129519;-38
2022/09/26 08:27:35;;;;;;;;;;;;;;;22.14;63.11;98511.84;7311654;19;128932;-39
2022/09/26 08:30:01;;;;;;;;;;;;;;;22.16;62.78;98504.66;7309984;19;129184;-38
2022/09/26 08:32:27;;;;;;;;;;;;;;;22.22;62.84;98509.19;7308557;19;130364;-39
2022/09/26 08:34:52;;;;;;;;;;;;;;;22.10;62.51;98484.41;7309441;19;129547;-39
2022/09/26 08:37:19;;;;;;;;;;;;;;;22.17;62.95;98501.03;7310334;19;129274;-38
2022/09/26 08:39:45;;;;;;;;;;;;;;;22.16;63.13;98500.25;7310873;19;129020;-39
2022/09/26 08:42:22;;;;;;;;;;;;;;;22.12;62.40;98498.09;7309557;19;129210;-42
2022/09/26 08:44:51;;;;;;;;;;;;;;;22.17;62.75;98507.09;7310261;19;129520;-38
2022/09/26 08:47:17;;;;;;;;;;;;;;;22.15;62.75;98510.88;7310539;19;129363;-37
2022/09/26 08:50:03;;;;;;;;;;;;;;;22.18;63.13;98513.16;7310003;19;129892;-38
2022/09/26 08:52:34;;;;;;;;;;;;;;;22.15;62.84;98509.06;7308061;19;129388;-38
2022/09/26 08:55:03;;;;;;;;;;;;;;;22.08;62.32;98488.97;7311834;19;129042;-39
2022/09/26 08:57:37;;;;;;;;;;;;;;;22.15;63.10;98511.69;7310989;19;129105;-39
2022/09/26 09:00:08;;;;;;;;;;;;;;;22.16;63.04;98509.88;7309546;19;129000;-41
2022/09/26 09:02:40;;;;;;;;;;;;;;;22.13;62.56;98499.75;7309171;19;130466;-37
2022/09/26 09:05:14;;;;;;;;;;;;;;;22.15;62.70;98500.41;7311004;19;128878;-37
2022/09/26 09:07:40;;;;;;;;;;;;;;;22.18;63.15;98497.44;7315981;19;129480;-38
2022/09/26 09:10:06;;;;;;;;;;;;;;;22.16;63.11;98483.69;7316186;19;130027;-42
2022/09/26 09:12:31;;;;;;;;;;;;;;;22.17;62.89;98496.63;7314264;19;131187;-39
2022/09/26 09:14:57;;;;;;;;;;;;;;;22.17;62.46;98499.25;7317347;19;129007;-39
2022/09/26 09:17:28;;;;;;;;;;;;;;;22.15;63.28;98493.34;7316958;19;129358;-38
2022/09/26 09:19:59;;;;;;;;;;;;;;;22.16;62.63;98488.94;7317097;19;130115;-39
2022/09/26 09:22:25;;;;;;;;;;;;;;;22.15;62.84;98488.13;7315355;19;129376;-40
2022/09/26 09:25:02;;;;;;;;;;;;;;;22.17;62.93;98483.53;7316620;19;129060;-38
2022/09/26 09:27:30;;;;;;;;;;;;;;;22.08;62.85;98460.97;7317004;19;129319;-39
2022/09/26 09:30:01;;;;;;;;;;;;;;;22.19;62.82;98483.34;7316042;19;129193;-38
2022/09/26 09:32:30;;;;;;;;;;;;;;;22.19;62.46;98488.59;7314844;19;129239;-38
2022/09/26 09:34:55;;;;;;;;;;;;;;;22.18;62.39;98479.13;7316048;19;128939;-39
2022/09/26 09:37:24;;;;;;;;;;;;;;;22.19;62.98;98478.13;7315483;19;129401;-38
2022/09/26 09:39:50;;;;;;;;;;;;;;;22.17;62.94;98467.81;7315505;19;130950;-38
2022/09/26 09:42:15;;;;;;;;;;;;;;;22.20;62.47;98477.13;7313435;19;129758;-37
2022/09/26 09:44:52;;;;;;;;;;;;;;;22.18;62.20;98468.66;7315649;19;129019;-41
2022/09/26 09:47:17;;;;;;;;;;;;;;;22.19;62.14;98462.41;7315519;19;129944;-40
2022/09/26 09:49:44;;;;;;;;;;;;;;;22.21;62.21;98470.91;7315384;19;130762;-38
2022/09/26 09:52:25;;;;;;;;;;;;;;;22.19;62.88;98462.41;7314471;19;129465;-37
2022/09/26 09:54:54;;;;;;;;;;;;;;;22.19;62.70;98462.41;7316886;19;129650;-37
2022/09/26 09:57:19;;;;;;;;;;;;;;;22.10;62.41;98450.38;7316611;19;129461;-37
2022/09/26 09:59:53;;;;;;;;;;;;;;;22.17;62.14;98459.97;7317332;19;130021;-37
2022/09/26 10:02:19;;;;;;;;;;;;;;;22.17;62.38;98465.22;7314342;19;129817;-38
2022/09/26 10:04:48;;;;;;;;;;;;;;;22.15;62.25;98461.13;7315846;19;128970;-38
2022/09/26 10:07:13;;;;;;;;;;;;;;;22.14;62.50;98459.50;7312872;19;129350;-38
2022/09/26 10:09:40;;;;;;;;;;;;;;;22.17;62.46;98449.50;7312626;19;129229;-39
2022/09/26 10:12:11;;;;;;;;;;;;;;;22.11;63.21;98436.28;7313618;19;129335;-39
2022/09/26 10:14:45;;;;;;;;;;;;;;;22.16;62.74;98447.06;7316959;19;128945;-39
2022/09/26 10:17:10;;;;;;;;;;;;;;;22.14;62.94;98443.78;7314531;19;130238;-36
2022/09/26 10:19:39;;;;;;;;;;;;;;;22.15;63.11;98435.75;7314910;19;132168;-37
2022/09/26 10:22:10;;;;;;;;;;;;;;;22.07;63.20;98411.41;7313884;19;130167;-38
2022/09/26 10:24:39;;;;;;;;;;;;;;;22.07;62.66;98427.13;7315548;19;129225;-37
2022/09/26 10:27:22;;;;;;;;;;;;;;;22.15;62.86;98433.16;7315138;19;129034;-39
2022/09/26 10:29:58;;;;;;;;;;;;;;;22.16;63.10;98426.13;7315326;19;129776;-37
2022/09/26 10:32:23;;;;;;;;;;;;;;;22.16;63.10;98428.72;7311497;19;129303;-39
2022/09/26 10:35:23;;;;;;;;;;;;;;;22.17;62.95;98430.34;7314409;19;128673;-39
2022/09/26 10:37:58;;;;;;;;;;;;;;;22.15;62.57;98421.88;7312852;19;129450;-38
2022/09/26 10:43:29;;;;;;;;;;;;;;;22.17;63.09;98423.31;7312875;19;129151;-36
2022/09/26 10:46:14;;;;;;;;;;;;;;;22.15;62.96;98416.63;7314645;19;128993;-39
2022/09/26 10:48:48;;;;;;;;;;;;;;;22.18;62.73;98421.53;7313319;19;129217;-39
2022/09/26 10:51:25;;;;;;;;;;;;;;;22.16;62.51;98415.63;7312565;19;129686;-38
2022/09/26 10:53:53;;;;;;;;;;;;;;;22.10;62.26;98405.88;7313237;19;130461;-37
2022/09/26 10:56:25;;;;;;;;;;;;;;;22.17;62.96;98409.41;7315060;19;128923;-37
2022/09/26 10:58:56;;;;;;;;;;;;;;;22.17;63.01;98410.22;7312736;19;129183;-37
2022/09/26 11:01:25;;;;;;;;;;;;;;;22.16;63.05;98400.75;7313660;19;129467;-36
2022/09/26 11:03:51;;;;;;;;;;;;;;;22.13;62.34;98395.03;7313019;19;130262;-38
2022/09/26 11:06:20;;;;;;;;;;;;;;;22.14;63.05;98391.44;7314588;19;128799;-40
2022/09/26 11:08:49;;;;;;;;;;;;;;;22.14;62.72;98397.50;7314185;19;129442;-38
2022/09/26 11:11:16;;;;;;;;;;;;;;;22.17;63.10;98396.31;7312627;19;129466;-37
2022/09/26 11:13:48;;;;;;;;;;;;;;;22.17;63.22;98388.47;7309855;19;130577;-37
2022/09/26 11:16:14;;;;;;;;;;;;;;;22.15;62.87;98393.09;7313697;19;129124;-39
2022/09/26 11:18:56;;;;;;;;;;;;;;;22.13;63.11;98384.56;7312480;19;129330;-38
2022/09/26 11:21:51;;;;;;;;;;;;;;;22.11;62.89;98376.06;7312971;19;130382;-39
2022/09/26 11:24:35;;;;;;;;;;;;;;;22.15;62.52;98385.22;7309855;19;130768;-38
2022/09/26 11:27:05;;;;;;;;;;;;;;;22.15;63.09;98382.59;7313097;19;129290;-39
2022/09/26 11:29:36;;;;;;;;;;;;;;;22.17;62.84;98370.13;7312452;19;129042;-36
2022/09/26 11:32:02;;;;;;;;;;;;;;;22.17;62.93;98364.91;7311662;19;130032;-37
2022/09/26 11:34:29;;;;;;;;;;;;;;;22.03;62.47;98348.16;7313023;19;130019;-38
2022/09/26 11:36:55;;;;;;;;;;;;;;;22.17;62.92;98364.91;7312170;19;128912;-39
2022/09/26 11:39:40;;;;;;;;;;;;;;;22.16;62.78;98363.28;7312321;19;129045;-40
2022/09/26 11:42:24;;;;;;;;;;;;;;;22.17;63.28;98364.91;7306489;19;129487;-37
2022/09/26 11:44:49;;;;;;;;;;;;;;;22.17;62.65;98357.06;7312095;19;130633;-37
2022/09/26 11:47:21;;;;;;;;;;;;;;;22.15;62.88;98356.44;7311279;19;129263;-35
2022/09/26 11:49:49;;;;;;;;;;;;;;;22.16;62.51;98358.06;7313040;19;128997;-37
2022/09/26 11:52:33;;;;;;;;;;;;;;;22.17;62.40;98346.59;7311260;19;129958;-36
2022/09/26 11:55:07;;;;;;;;;;;;;;;22.18;62.21;98356.09;7312876;19;129706;-37
2022/09/26 11:57:44;;;;;;;;;;;;;;;22.17;62.44;98349.19;7312207;19;129051;-39
2022/09/26 12:00:11;;;;;;;;;;;;;;;22.16;62.70;98352.81;7313404;19;129455;-37
2022/09/26 12:02:56;;;;;;;;;;;;;;;22.14;62.43;98349.56;7310273;19;129373;-37
2022/09/26 12:05:30;;;;;;;;;;;;;;;22.15;62.37;98341.53;7311426;19;129502;-39
2022/09/26 12:08:14;;;;;;;;;;;;;;;22.11;62.44;98329.78;7312836;19;128838;-38
2022/09/26 12:10:48;;;;;;;;;;;;;;;22.16;63.08;98332.69;7309645;19;129315;-38
2022/09/26 12:13:16;;;;;;;;;;;;;;;22.16;63.12;98332.69;7309920;19;129534;-39
2022/09/26 12:15:54;;;;;;;;;;;;;;;22.15;62.95;98328.44;7311870;19;130733;-39
2022/09/26 12:18:38;;;;;;;;;;;;;;;22.14;62.68;98324.19;7311166;19;129840;-38
2022/09/26 12:21:10;;;;;;;;;;;;;;;22.16;63.03;98321.41;7311791;19;129076;-37
2022/09/26 12:23:40;;;;;;;;;;;;;;;22.15;62.35;98319.78;7307122;19;129287;-38
2022/09/26 12:26:08;;;;;;;;;;;;;;;22.17;62.46;98316.00;7311068;19;130546;-38
2022/09/26 12:28:48;;;;;;;;;;;;;;;22.15;62.29;98310.09;7311175;19;129619;-37
2022/09/26 12:31:20;;;;;;;;;;;;;;;22.15;63.10;98304.09;7309011;19;129099;-38
2022/09/26 12:33:51;;;;;;;;;;;;;;;22.15;62.84;98304.09;7309790;19;130162;-38
2022/09/26 12:36:20;;;;;;;;;;;;;;;22.13;63.07;98301.59;7310191;19;129513;-39
2022/09/26 12:38:45;;;;;;;;;;;;;;;22.15;62.87;98299.63;7311091;19;130192;-37
2022/09/26 12:41:29;;;;;;;;;;;;;;;22.05;62.95;98282.56;7312518;19;129108;-39
2022/09/26 12:44:06;;;;;;;;;;;;;;;22.17;62.58;98302.06;7316607;19;129168;-37
2022/09/26 12:46:34;;;;;;;;;;;;;;;22.16;62.61;98292.59;7317779;19;130720;-37
2022/09/26 12:49:18;;;;;;;;;;;;;;;22.14;62.84;98292.78;7318990;19;129075;-37
2022/09/26 12:51:47;;;;;;;;;;;;;;;22.15;62.63;98288.38;7314632;19;129126;-35
2022/09/26 12:54:32;;;;;;;;;;;;;;;22.15;62.84;98285.75;7318180;19;129068;-39
2022/09/26 12:57:03;;;;;;;;;;;;;;;22.14;63.05;98281.50;7317421;19;130428;-39